x

Central Caribbean - 210 Nm Sse Of Kingston, Jamaica (42058) Wave Buoy

9:50 - Wed 1st Oct 2014 All times are EST. -5 hours from GMT.

  • Sig Wave height 6.9ft
  • Swell Direction
  • Peak Period 8s
  • Average Period 5s
  • Wind
    25mph, 29mph gusts
  • Sea Temp 84°f
  • Air Temp 84°f
  • Sea Pressure 1012.7mb
  • Central Caribbean - 210 Nm Sse Of Kingston, Jamaica
  • Central Caribbean - 210 Nm Sse Of Kingston, Jamaica

More Historic Weather Station data

Upgrade to MSW Pro to gain access to the past 30 days of data for over 8000 Wavebouys and Weather Stations around the globe.

Join Pro

Comparision Forecast

View Surf forecast
   
mer. 10/01 9:50 7ft 8s 5s 25 29 mph 1012.7mb 84f 84f
8:50 7ft 8s 5s 25 29 mph 1012.5mb 84f 84f
7:50 7.5ft 8s 6s 27 31 mph 1012.1mb 84f 84f
6:50 7.5ft 8s 5s 25 29 mph 1011.5mb 84f 84f
5:50 7.5ft 8s 6s 25 29 mph 1011mb 84f 84f
4:50 8ft 8s 6s 25 29 mph 1010.6mb 84f 84f
3:50 7.5ft 8s 6s 22 29 mph 1010.4mb 84f 84f
2:50 8ft 8s 6s 22 27 mph 1010.3mb 84f 84f
1:50 7ft 8s 5s 25 29 mph 1010.2mb 84f 84f
12:50 7ft 8s 5s 25 29 mph 1010.6mb 84f 84f
mar. 09/30 11:50 7ft 6s 5s 25 29 mph 1010.9mb 84f 84f
10:50 7ft 8s 5s 25 29 mph 1011mb 84f 84f
9:50 7ft 8s 5s 25 31 mph 1011.2mb 84f 84f
8:50 7ft 8s 5s 25 29 mph 1011.1mb 84f 84f
7:50 7ft 8s 5s 27 31 mph 1010.5mb 84f 84f
6:50 6ft 8s 5s 22 27 mph 1010mb 85f 84f
5:50 6.5ft 8s 6s 22 27 mph 1009.6mb 85f 85f
4:50 6ft 8s 5s 22 25 mph 1009.5mb 84f 85f
3:50 6ft 8s 6s 22 25 mph 1009.3mb 85f 85f
2:50 6ft 7s 5s 18 25 mph 1009.5mb 85f 84f
1:50 6.5ft 8s 6s 18 22 mph 1009.9mb 85f 84f
12:50 6.5ft 8s 6s 20 25 mph 1010.4mb 84f 84f
11:50 7ft 8s 5s 20 25 mph 1011.2mb 84f 84f
10:50 7ft 8s 6s 20 25 mph 1011.6mb 84f 84f
9:50 6ft 8s 5s 20 25 mph 1011.9mb 84f 84f
8:50 7ft 8s 6s 20 25 mph 1011.6mb 84f 84f
7:50 6ft 6s 5s 20 25 mph 1011.3mb 84f 84f
6:50 6.5ft 8s 5s 22 25 mph 1011mb 84f 84f
5:50 6ft 7s 5s 20 22 mph 1010.7mb 84f 84f
4:50 6ft 8s 5s 18 22 mph 1010.3mb 84f 84f
3:50 6.5ft 8s 6s 20 25 mph 1009.7mb 84f 84f
2:50 6ft 8s 5s 20 22 mph 1009.6mb 84f 84f
1:50 6ft 8s 5s 18 22 mph 1009.8mb 84f 84f
12:50 6ft 8s 5s 20 25 mph 1010.3mb 84f 84f
lun. 09/29 11:50 5.5ft 8s 5s 20 22 mph 1010.6mb 84f 84f
10:50 5.5ft 8s 5s 18 22 mph 1011.1mb 84f 84f
9:50 5ft 7s 5s 22 25 mph 1011.3mb 84f 84f
8:50 5.5ft 8s 5s 18 22 mph 1011.1mb 84f 84f
7:50 5.5ft 8s 5s 20 25 mph 1010.6mb 84f 84f
6:50 5ft 7s 5s 20 22 mph 1009.8mb 84f 84f
5:50 5ft 8s 5s 18 22 mph 1009.3mb 84f 84f
4:50 5ft 8s 5s 18 22 mph 1009.2mb 84f 84f
3:50 5ft 8s 5s 18 20 mph 1009.2mb 84f 84f
2:50 5.5ft 7s 5s 16 20 mph 1009.5mb 84f 84f
1:50 5.5ft 8s 5s 16 20 mph 1010mb 84f 84f
12:50 5.5ft 7s 5s 16 20 mph 1010.8mb 84f 84f
11:50 5.5ft 7s 5s 16 20 mph 1011.2mb 84f 84f
10:50 5.5ft 7s 5s 18 20 mph 1011.9mb 84f 84f
9:50 5.5ft 8s 5s 18 20 mph 1011.8mb 84f 84f
8:50 5ft 7s 5s 18 20 mph 1011.5mb 84f 84f
7:50 5ft 7s 5s 20 22 mph 1011mb 84f 84f
6:50 5ft 7s 5s 18 22 mph 1010.6mb 84f 84f
5:50 5ft 8s 5s 20 22 mph 1010.1mb 84f 84f
4:50 5ft 7s 5s 18 20 mph 1009.7mb 84f 84f
3:50 5ft 7s 5s 20 22 mph 1009.2mb 84f 84f
2:50 5ft 7s 5s 16 20 mph 1009.2mb 84f 84f
1:50 5ft 7s 5s 18 22 mph 1009.3mb 84f 84f
12:50 5ft 8s 5s 20 22 mph 1009.6mb 84f 84f
dim. 09/28 11:50 5ft 7s 5s 20 22 mph 1010.3mb 84f 84f
10:50 5ft 7s 5s 20 22 mph 1010.7mb 84f 84f
9:50 5.5ft 7s 5s 18 22 mph 1010.8mb 84f 84f
8:50 5.5ft 7s 5s 18 20 mph 1010.6mb 84f 84f
7:50 5ft 6s 5s 18 22 mph 1010.3mb 84f 84f
6:50 5ft 7s 5s 20 25 mph 1009mb 84f 84f
5:50 4.5ft 6s 5s 18 22 mph 1008.4mb 84f 84f
4:50 4.5ft 6s 5s 18 22 mph 1008.8mb 84f 84f
3:50 4.5ft 6s 5s 18 20 mph 1009mb 84f 84f
2:50 4.5ft 6s 5s 16 18 mph 1009.4mb 84f 84f
12:50 4.5ft 5s 5s 16 20 mph 1011mb 84f 84f
11:50 4.5ft 6s 5s 18 22 mph 1011.2mb 84f 83f
10:50 4.5ft 6s 5s 20 22 mph 1011.7mb 84f 83f
9:50 4.5ft 5s 5s 18 20 mph 1011.9mb 84f 84f
8:50 4ft 5s 5s 16 20 mph 1011.7mb 84f 83f
7:50 4ft 6s 4s 13 16 mph 1011.4mb 84f 80f
6:50 4ft 5s 4s 18 20 mph 1010.6mb 84f 84f
5:50 3.5ft 5s 4s 18 20 mph 1010mb 84f 84f
4:50 3ft 5s 4s 16 18 mph 1009.6mb 84f 84f
3:50 3.5ft 5s 4s 16 18 mph 1009.4mb 84f 84f
2:50 3.5ft 5s 4s 16 18 mph 1009.4mb 84f 83f
1:50 3ft 4s 4s 16 18 mph 1009.4mb 84f 84f
12:50 3ft 5s 4s 16 18 mph 1009.8mb 84f 83f
sam. 09/27 11:50 3.5ft 4s 4s 16 20 mph 1010.4mb 84f 84f
10:50 3ft 4s 4s 16 20 mph 1010.9mb 84f 84f
9:50 2.5ft 4s 4s 16 20 mph 1010.7mb 84f 84f
8:50 2.5ft 4s 4s 18 20 mph 1010.4mb 84f 84f
7:50 2.5ft 6s 4s 16 18 mph 1009.5mb 84f 84f
6:50 2.5ft 6s 4s 16 18 mph 1009mb 85f 84f
5:50 2.5ft 6s 4s 13 16 mph 1008.3mb 85f 84f
4:50 2.5ft 6s 4s 13 16 mph 1007.9mb 85f 84f
3:50 2.5ft 6s 4s 13 16 mph 1007.9mb 85f 84f